sensor_id;sensor_type;location;lat;lon;timestamp;P1;durP1;ratioP1;P2;durP2;ratioP2
78614;SDS011;67937;52.488;20.952;2023-05-03T00:01:14;3.00;;;1.20;;
78614;SDS011;67937;52.488;20.952;2023-05-03T00:03:42;1.10;;;1.00;;
78614;SDS011;67937;52.488;20.952;2023-05-03T00:06:11;4.80;;;1.70;;
78614;SDS011;67937;52.488;20.952;2023-05-03T00:08:41;3.40;;;1.70;;
78614;SDS011;67937;52.488;20.952;2023-05-03T00:11:10;1.50;;;1.30;;
78614;SDS011;67937;52.488;20.952;2023-05-03T00:13:38;2.50;;;1.90;;
78614;SDS011;67937;52.488;20.952;2023-05-03T00:16:06;2.00;;;1.30;;
78614;SDS011;67937;52.488;20.952;2023-05-03T00:18:34;3.20;;;1.20;;
78614;SDS011;67937;52.488;20.952;2023-05-03T00:21:02;1.20;;;1.10;;
78614;SDS011;67937;52.488;20.952;2023-05-03T00:23:30;1.20;;;1.20;;
78614;SDS011;67937;52.488;20.952;2023-05-03T00:25:59;2.30;;;1.60;;
78614;SDS011;67937;52.488;20.952;2023-05-03T00:28:27;3.00;;;1.30;;
78614;SDS011;67937;52.488;20.952;2023-05-03T00:30:55;4.10;;;1.70;;
78614;SDS011;67937;52.488;20.952;2023-05-03T00:33:23;2.90;;;1.20;;
78614;SDS011;67937;52.488;20.952;2023-05-03T00:35:51;3.40;;;1.90;;
78614;SDS011;67937;52.488;20.952;2023-05-03T00:38:19;1.90;;;1.70;;
78614;SDS011;67937;52.488;20.952;2023-05-03T00:40:52;2.80;;;1.70;;
78614;SDS011;67937;52.488;20.952;2023-05-03T00:43:21;1.80;;;1.50;;
78614;SDS011;67937;52.488;20.952;2023-05-03T00:45:49;5.10;;;1.90;;
78614;SDS011;67937;52.488;20.952;2023-05-03T00:48:17;3.30;;;1.90;;
78614;SDS011;67937;52.488;20.952;2023-05-03T00:50:45;7.80;;;2.10;;
78614;SDS011;67937;52.488;20.952;2023-05-03T00:53:14;6.50;;;2.40;;
78614;SDS011;67937;52.488;20.952;2023-05-03T00:55:43;4.20;;;2.60;;
78614;SDS011;67937;52.488;20.952;2023-05-03T00:58:12;7.30;;;3.60;;
78614;SDS011;67937;52.488;20.952;2023-05-03T01:00:40;8.60;;;3.50;;
78614;SDS011;67937;52.488;20.952;2023-05-03T01:03:08;4.90;;;3.10;;
78614;SDS011;67937;52.488;20.952;2023-05-03T01:05:41;4.30;;;2.90;;
78614;SDS011;67937;52.488;20.952;2023-05-03T01:09:06;6.50;;;3.40;;
78614;SDS011;67937;52.488;20.952;2023-05-03T01:11:25;6.40;;;3.30;;
78614;SDS011;67937;52.488;20.952;2023-05-03T01:16:55;6.30;;;3.50;;
78614;SDS011;67937;52.488;20.952;2023-05-03T01:19:33;5.90;;;2.90;;
78614;SDS011;67937;52.488;20.952;2023-05-03T01:25:08;5.90;;;3.40;;
78614;SDS011;67937;52.488;20.952;2023-05-03T01:27:38;5.10;;;3.00;;
78614;SDS011;67937;52.488;20.952;2023-05-03T01:30:08;6.50;;;2.70;;
78614;SDS011;67937;52.488;20.952;2023-05-03T01:38:00;3.60;;;2.20;;
78614;SDS011;67937;52.488;20.952;2023-05-03T01:40:29;2.50;;;2.00;;
78614;SDS011;67937;52.488;20.952;2023-05-03T01:43:02;5.30;;;2.40;;
78614;SDS011;67937;52.488;20.952;2023-05-03T01:45:31;3.30;;;2.70;;
78614;SDS011;67937;52.488;20.952;2023-05-03T01:47:59;3.60;;;2.40;;
78614;SDS011;67937;52.488;20.952;2023-05-03T01:50:27;3.40;;;2.30;;
78614;SDS011;67937;52.488;20.952;2023-05-03T01:52:55;4.80;;;2.40;;
78614;SDS011;67937;52.488;20.952;2023-05-03T01:55:23;4.40;;;2.30;;
78614;SDS011;67937;52.488;20.952;2023-05-03T01:57:52;6.00;;;2.30;;
78614;SDS011;67937;52.488;20.952;2023-05-03T02:00:20;3.60;;;2.60;;
78614;SDS011;67937;52.488;20.952;2023-05-03T02:02:48;3.30;;;2.60;;
78614;SDS011;67937;52.488;20.952;2023-05-03T02:05:16;5.80;;;2.50;;
78614;SDS011;67937;52.488;20.952;2023-05-03T02:07:44;5.00;;;2.30;;
78614;SDS011;67937;52.488;20.952;2023-05-03T02:10:12;2.60;;;2.20;;
78614;SDS011;67937;52.488;20.952;2023-05-03T02:12:42;4.00;;;2.20;;
78614;SDS011;67937;52.488;20.952;2023-05-03T02:15:11;3.90;;;3.10;;
78614;SDS011;67937;52.488;20.952;2023-05-03T02:17:40;3.70;;;2.10;;
78614;SDS011;67937;52.488;20.952;2023-05-03T02:20:10;4.70;;;2.90;;
78614;SDS011;67937;52.488;20.952;2023-05-03T02:22:39;3.00;;;2.70;;
78614;SDS011;67937;52.488;20.952;2023-05-03T02:25:07;2.90;;;2.40;;
78614;SDS011;67937;52.488;20.952;2023-05-03T02:27:35;4.80;;;2.30;;
78614;SDS011;67937;52.488;20.952;2023-05-03T02:30:04;4.20;;;2.10;;
78614;SDS011;67937;52.488;20.952;2023-05-03T02:32:32;3.80;;;2.60;;
78614;SDS011;67937;52.488;20.952;2023-05-03T02:35:01;4.30;;;3.10;;
78614;SDS011;67937;52.488;20.952;2023-05-03T02:37:29;7.60;;;3.70;;
78614;SDS011;67937;52.488;20.952;2023-05-03T02:39:57;5.20;;;3.10;;
78614;SDS011;67937;52.488;20.952;2023-05-03T02:42:25;5.60;;;2.80;;
78614;SDS011;67937;52.488;20.952;2023-05-03T02:44:53;4.80;;;2.90;;
78614;SDS011;67937;52.488;20.952;2023-05-03T02:47:22;3.00;;;2.40;;
78614;SDS011;67937;52.488;20.952;2023-05-03T02:49:50;5.00;;;2.90;;
78614;SDS011;67937;52.488;20.952;2023-05-03T02:52:18;4.10;;;2.90;;
78614;SDS011;67937;52.488;20.952;2023-05-03T02:54:46;4.80;;;3.20;;
78614;SDS011;67937;52.488;20.952;2023-05-03T02:57:15;4.30;;;2.70;;
78614;SDS011;67937;52.488;20.952;2023-05-03T02:59:43;2.90;;;2.20;;
78614;SDS011;67937;52.488;20.952;2023-05-03T03:02:11;4.40;;;2.50;;
78614;SDS011;67937;52.488;20.952;2023-05-03T03:04:39;2.80;;;2.30;;
78614;SDS011;67937;52.488;20.952;2023-05-03T03:07:07;3.10;;;2.30;;
78614;SDS011;67937;52.488;20.952;2023-05-03T03:09:35;8.20;;;2.90;;
78614;SDS011;67937;52.488;20.952;2023-05-03T03:12:04;2.40;;;2.10;;
78614;SDS011;67937;52.488;20.952;2023-05-03T03:14:32;4.90;;;2.90;;
78614;SDS011;67937;52.488;20.952;2023-05-03T03:17:00;3.80;;;2.70;;
78614;SDS011;67937;52.488;20.952;2023-05-03T03:19:28;5.70;;;3.00;;
78614;SDS011;67937;52.488;20.952;2023-05-03T03:21:56;6.40;;;2.40;;
78614;SDS011;67937;52.488;20.952;2023-05-03T03:24:24;3.60;;;2.90;;
78614;SDS011;67937;52.488;20.952;2023-05-03T03:26:53;4.40;;;2.40;;
78614;SDS011;67937;52.488;20.952;2023-05-03T03:29:21;3.40;;;2.60;;
78614;SDS011;67937;52.488;20.952;2023-05-03T03:31:49;3.50;;;2.50;;
78614;SDS011;67937;52.488;20.952;2023-05-03T03:34:17;3.70;;;2.50;;
78614;SDS011;67937;52.488;20.952;2023-05-03T03:36:45;2.70;;;2.30;;
78614;SDS011;67937;52.488;20.952;2023-05-03T03:39:13;3.40;;;2.40;;
78614;SDS011;67937;52.488;20.952;2023-05-03T03:41:42;4.90;;;2.60;;
78614;SDS011;67937;52.488;20.952;2023-05-03T03:44:10;7.20;;;2.70;;
78614;SDS011;67937;52.488;20.952;2023-05-03T03:46:38;3.40;;;2.50;;
78614;SDS011;67937;52.488;20.952;2023-05-03T03:49:06;3.70;;;2.90;;
78614;SDS011;67937;52.488;20.952;2023-05-03T03:51:34;4.00;;;2.50;;
78614;SDS011;67937;52.488;20.952;2023-05-03T03:54:03;3.30;;;2.70;;
78614;SDS011;67937;52.488;20.952;2023-05-03T03:56:31;4.10;;;2.50;;
78614;SDS011;67937;52.488;20.952;2023-05-03T03:58:59;4.10;;;2.90;;
78614;SDS011;67937;52.488;20.952;2023-05-03T04:01:27;4.70;;;2.30;;
78614;SDS011;67937;52.488;20.952;2023-05-03T04:03:56;5.70;;;2.30;;
78614;SDS011;67937;52.488;20.952;2023-05-03T04:06:24;3.20;;;2.60;;
78614;SDS011;67937;52.488;20.952;2023-05-03T04:08:52;5.30;;;2.60;;
78614;SDS011;67937;52.488;20.952;2023-05-03T04:11:20;5.40;;;2.60;;
78614;SDS011;67937;52.488;20.952;2023-05-03T04:13:49;5.50;;;2.80;;
78614;SDS011;67937;52.488;20.952;2023-05-03T04:16:17;3.40;;;2.30;;
78614;SDS011;67937;52.488;20.952;2023-05-03T04:18:45;2.70;;;2.00;;
78614;SDS011;67937;52.488;20.952;2023-05-03T04:21:13;4.10;;;2.30;;
78614;SDS011;67937;52.488;20.952;2023-05-03T04:23:41;4.20;;;2.40;;
78614;SDS011;67937;52.488;20.952;2023-05-03T04:26:09;2.60;;;2.10;;
78614;SDS011;67937;52.488;20.952;2023-05-03T04:28:38;3.00;;;2.20;;
78614;SDS011;67937;52.488;20.952;2023-05-03T04:31:06;5.90;;;2.30;;
78614;SDS011;67937;52.488;20.952;2023-05-03T04:33:35;3.30;;;2.00;;
78614;SDS011;67937;52.488;20.952;2023-05-03T04:36:03;2.60;;;2.30;;
78614;SDS011;67937;52.488;20.952;2023-05-03T04:38:31;3.20;;;2.00;;
78614;SDS011;67937;52.488;20.952;2023-05-03T04:40:59;2.30;;;1.90;;
78614;SDS011;67937;52.488;20.952;2023-05-03T04:43:28;3.30;;;2.20;;
78614;SDS011;67937;52.488;20.952;2023-05-03T04:45:58;5.10;;;2.00;;
78614;SDS011;67937;52.488;20.952;2023-05-03T04:48:26;2.40;;;1.60;;
78614;SDS011;67937;52.488;20.952;2023-05-03T04:50:54;2.70;;;2.50;;
78614;SDS011;67937;52.488;20.952;2023-05-03T04:53:22;2.00;;;1.70;;
78614;SDS011;67937;52.488;20.952;2023-05-03T04:55:51;2.50;;;1.80;;
78614;SDS011;67937;52.488;20.952;2023-05-03T04:58:19;3.00;;;1.90;;
78614;SDS011;67937;52.488;20.952;2023-05-03T05:00:47;2.90;;;1.70;;
78614;SDS011;67937;52.488;20.952;2023-05-03T05:03:15;2.20;;;1.80;;
78614;SDS011;67937;52.488;20.952;2023-05-03T05:05:43;2.10;;;1.70;;
78614;SDS011;67937;52.488;20.952;2023-05-03T05:08:11;5.30;;;2.00;;
78614;SDS011;67937;52.488;20.952;2023-05-03T05:10:40;2.40;;;1.70;;
78614;SDS011;67937;52.488;20.952;2023-05-03T05:13:08;2.10;;;1.70;;
78614;SDS011;67937;52.488;20.952;2023-05-03T05:15:36;2.60;;;1.70;;
78614;SDS011;67937;52.488;20.952;2023-05-03T05:18:04;2.20;;;1.60;;
78614;SDS011;67937;52.488;20.952;2023-05-03T05:20:32;2.30;;;1.40;;
78614;SDS011;67937;52.488;20.952;2023-05-03T05:23:00;1.60;;;1.50;;
78614;SDS011;67937;52.488;20.952;2023-05-03T05:25:29;1.50;;;1.40;;
78614;SDS011;67937;52.488;20.952;2023-05-03T05:27:57;2.80;;;1.70;;
78614;SDS011;67937;52.488;20.952;2023-05-03T05:30:25;2.90;;;1.60;;
78614;SDS011;67937;52.488;20.952;2023-05-03T05:32:53;1.70;;;1.40;;
78614;SDS011;67937;52.488;20.952;2023-05-03T05:35:21;1.90;;;1.30;;
78614;SDS011;67937;52.488;20.952;2023-05-03T05:37:49;1.50;;;1.30;;
78614;SDS011;67937;52.488;20.952;2023-05-03T05:40:17;1.70;;;1.40;;
78614;SDS011;67937;52.488;20.952;2023-05-03T05:42:45;2.60;;;1.90;;
78614;SDS011;67937;52.488;20.952;2023-05-03T05:45:14;1.90;;;1.60;;
78614;SDS011;67937;52.488;20.952;2023-05-03T05:47:42;3.70;;;1.70;;
78614;SDS011;67937;52.488;20.952;2023-05-03T05:50:11;1.60;;;1.50;;
78614;SDS011;67937;52.488;20.952;2023-05-03T05:52:39;2.20;;;1.50;;
78614;SDS011;67937;52.488;20.952;2023-05-03T05:55:07;1.20;;;1.10;;
78614;SDS011;67937;52.488;20.952;2023-05-03T05:57:39;1.50;;;1.40;;
78614;SDS011;67937;52.488;20.952;2023-05-03T06:00:07;1.70;;;1.40;;
78614;SDS011;67937;52.488;20.952;2023-05-03T06:02:40;1.70;;;1.20;;
78614;SDS011;67937;52.488;20.952;2023-05-03T06:05:09;2.00;;;1.30;;
78614;SDS011;67937;52.488;20.952;2023-05-03T06:07:38;1.30;;;1.20;;
78614;SDS011;67937;52.488;20.952;2023-05-03T06:10:07;1.40;;;1.10;;
78614;SDS011;67937;52.488;20.952;2023-05-03T06:12:35;2.30;;;1.70;;
78614;SDS011;67937;52.488;20.952;2023-05-03T06:15:03;1.20;;;1.10;;
78614;SDS011;67937;52.488;20.952;2023-05-03T06:17:32;1.00;;;0.70;;
78614;SDS011;67937;52.488;20.952;2023-05-03T06:20:01;2.80;;;1.30;;
78614;SDS011;67937;52.488;20.952;2023-05-03T06:22:30;1.80;;;1.20;;
78614;SDS011;67937;52.488;20.952;2023-05-03T06:24:58;1.90;;;1.20;;
78614;SDS011;67937;52.488;20.952;2023-05-03T06:27:27;1.30;;;1.00;;
78614;SDS011;67937;52.488;20.952;2023-05-03T06:29:55;2.20;;;1.10;;
78614;SDS011;67937;52.488;20.952;2023-05-03T06:32:23;2.90;;;1.80;;
78614;SDS011;67937;52.488;20.952;2023-05-03T06:34:51;2.20;;;1.50;;
78614;SDS011;67937;52.488;20.952;2023-05-03T06:37:20;1.30;;;0.90;;
78614;SDS011;67937;52.488;20.952;2023-05-03T06:39:49;1.30;;;0.90;;
78614;SDS011;67937;52.488;20.952;2023-05-03T06:42:18;2.30;;;1.60;;
78614;SDS011;67937;52.488;20.952;2023-05-03T06:44:46;1.40;;;0.80;;
78614;SDS011;67937;52.488;20.952;2023-05-03T06:47:14;6.80;;;1.50;;
78614;SDS011;67937;52.488;20.952;2023-05-03T06:49:43;0.80;;;0.80;;
78614;SDS011;67937;52.488;20.952;2023-05-03T06:52:11;1.10;;;1.10;;
78614;SDS011;67937;52.488;20.952;2023-05-03T06:54:40;1.80;;;0.90;;
78614;SDS011;67937;52.488;20.952;2023-05-03T06:57:08;1.20;;;0.90;;
78614;SDS011;67937;52.488;20.952;2023-05-03T06:59:36;1.50;;;1.10;;
78614;SDS011;67937;52.488;20.952;2023-05-03T07:02:05;1.20;;;0.80;;
78614;SDS011;67937;52.488;20.952;2023-05-03T07:04:33;1.40;;;1.10;;
78614;SDS011;67937;52.488;20.952;2023-05-03T07:07:03;1.10;;;1.10;;
78614;SDS011;67937;52.488;20.952;2023-05-03T07:09:31;0.90;;;0.80;;
78614;SDS011;67937;52.488;20.952;2023-05-03T07:11:59;0.70;;;0.70;;
78614;SDS011;67937;52.488;20.952;2023-05-03T07:14:28;1.60;;;1.20;;
78614;SDS011;67937;52.488;20.952;2023-05-03T07:16:56;1.30;;;0.90;;
78614;SDS011;67937;52.488;20.952;2023-05-03T07:19:25;1.00;;;1.00;;
78614;SDS011;67937;52.488;20.952;2023-05-03T07:21:53;1.90;;;1.70;;
78614;SDS011;67937;52.488;20.952;2023-05-03T07:24:21;2.50;;;1.00;;
78614;SDS011;67937;52.488;20.952;2023-05-03T07:26:51;1.10;;;0.60;;
78614;SDS011;67937;52.488;20.952;2023-05-03T07:29:20;1.90;;;1.40;;
78614;SDS011;67937;52.488;20.952;2023-05-03T07:31:48;1.50;;;1.00;;
78614;SDS011;67937;52.488;20.952;2023-05-03T07:34:17;1.00;;;1.00;;
78614;SDS011;67937;52.488;20.952;2023-05-03T07:36:45;1.60;;;1.20;;
78614;SDS011;67937;52.488;20.952;2023-05-03T07:39:13;2.10;;;1.20;;
78614;SDS011;67937;52.488;20.952;2023-05-03T07:41:42;2.30;;;1.20;;
78614;SDS011;67937;52.488;20.952;2023-05-03T07:44:11;2.70;;;1.30;;
78614;SDS011;67937;52.488;20.952;2023-05-03T07:46:39;1.10;;;1.10;;
78614;SDS011;67937;52.488;20.952;2023-05-03T07:49:07;2.00;;;1.20;;
78614;SDS011;67937;52.488;20.952;2023-05-03T07:51:35;5.10;;;1.20;;
78614;SDS011;67937;52.488;20.952;2023-05-03T07:54:05;2.30;;;1.20;;
78614;SDS011;67937;52.488;20.952;2023-05-03T07:56:33;0.70;;;0.70;;
78614;SDS011;67937;52.488;20.952;2023-05-03T07:59:01;1.20;;;1.10;;
78614;SDS011;67937;52.488;20.952;2023-05-03T08:01:30;1.30;;;0.90;;
78614;SDS011;67937;52.488;20.952;2023-05-03T08:03:58;0.80;;;0.80;;
78614;SDS011;67937;52.488;20.952;2023-05-03T08:06:26;1.80;;;1.00;;
78614;SDS011;67937;52.488;20.952;2023-05-03T08:08:54;1.50;;;1.40;;
78614;SDS011;67937;52.488;20.952;2023-05-03T08:11:22;4.50;;;1.40;;
78614;SDS011;67937;52.488;20.952;2023-05-03T08:13:51;1.80;;;1.20;;
78614;SDS011;67937;52.488;20.952;2023-05-03T08:16:19;1.20;;;1.10;;
78614;SDS011;67937;52.488;20.952;2023-05-03T08:18:48;1.10;;;1.00;;
78614;SDS011;67937;52.488;20.952;2023-05-03T08:21:16;1.60;;;1.40;;
78614;SDS011;67937;52.488;20.952;2023-05-03T08:23:45;1.30;;;1.10;;
78614;SDS011;67937;52.488;20.952;2023-05-03T08:26:14;1.10;;;1.00;;
78614;SDS011;67937;52.488;20.952;2023-05-03T08:28:42;1.80;;;1.30;;
78614;SDS011;67937;52.488;20.952;2023-05-03T08:31:10;1.10;;;1.10;;
78614;SDS011;67937;52.488;20.952;2023-05-03T08:33:39;1.50;;;0.90;;
78614;SDS011;67937;52.488;20.952;2023-05-03T08:36:07;1.80;;;1.10;;
78614;SDS011;67937;52.488;20.952;2023-05-03T08:38:35;3.50;;;1.00;;
78614;SDS011;67937;52.488;20.952;2023-05-03T08:41:26;1.20;;;1.20;;
78614;SDS011;67937;52.488;20.952;2023-05-03T08:46:25;2.20;;;1.20;;
78614;SDS011;67937;52.488;20.952;2023-05-03T08:48:54;1.10;;;1.00;;
78614;SDS011;67937;52.488;20.952;2023-05-03T08:51:23;2.00;;;1.00;;
78614;SDS011;67937;52.488;20.952;2023-05-03T08:53:53;3.10;;;1.10;;
78614;SDS011;67937;52.488;20.952;2023-05-03T08:56:38;2.40;;;1.20;;
78614;SDS011;67937;52.488;20.952;2023-05-03T08:59:11;0.90;;;0.90;;
78614;SDS011;67937;52.488;20.952;2023-05-03T09:01:39;1.40;;;0.80;;
78614;SDS011;67937;52.488;20.952;2023-05-03T09:04:09;1.10;;;1.10;;
78614;SDS011;67937;52.488;20.952;2023-05-03T09:06:38;1.60;;;1.20;;
78614;SDS011;67937;52.488;20.952;2023-05-03T09:09:07;1.00;;;1.00;;
78614;SDS011;67937;52.488;20.952;2023-05-03T09:11:36;1.80;;;1.00;;
78614;SDS011;67937;52.488;20.952;2023-05-03T09:16:41;9.90;;;1.70;;
78614;SDS011;67937;52.488;20.952;2023-05-03T09:19:11;1.80;;;1.10;;
78614;SDS011;67937;52.488;20.952;2023-05-03T09:21:42;1.10;;;1.10;;
78614;SDS011;67937;52.488;20.952;2023-05-03T09:24:16;1.90;;;1.20;;
78614;SDS011;67937;52.488;20.952;2023-05-03T09:26:46;1.20;;;1.20;;
78614;SDS011;67937;52.488;20.952;2023-05-03T09:31:58;2.40;;;1.30;;
78614;SDS011;67937;52.488;20.952;2023-05-03T09:34:28;1.40;;;1.30;;
78614;SDS011;67937;52.488;20.952;2023-05-03T09:36:57;2.10;;;1.60;;
78614;SDS011;67937;52.488;20.952;2023-05-03T09:39:25;3.10;;;1.30;;
78614;SDS011;67937;52.488;20.952;2023-05-03T09:41:54;1.90;;;1.20;;
78614;SDS011;67937;52.488;20.952;2023-05-03T09:44:42;1.70;;;1.50;;
78614;SDS011;67937;52.488;20.952;2023-05-03T09:47:14;1.30;;;1.00;;
78614;SDS011;67937;52.488;20.952;2023-05-03T09:49:42;2.50;;;1.30;;
78614;SDS011;67937;52.488;20.952;2023-05-03T09:52:11;2.50;;;2.30;;
78614;SDS011;67937;52.488;20.952;2023-05-03T09:54:39;4.00;;;1.50;;
78614;SDS011;67937;52.488;20.952;2023-05-03T09:57:09;1.30;;;1.20;;
78614;SDS011;67937;52.488;20.952;2023-05-03T09:59:38;2.40;;;1.60;;
78614;SDS011;67937;52.488;20.952;2023-05-03T10:02:06;2.70;;;1.50;;
78614;SDS011;67937;52.488;20.952;2023-05-03T10:04:39;2.10;;;1.50;;
78614;SDS011;67937;52.488;20.952;2023-05-03T10:07:11;2.60;;;1.50;;
78614;SDS011;67937;52.488;20.952;2023-05-03T10:09:45;2.20;;;1.60;;
78614;SDS011;67937;52.488;20.952;2023-05-03T10:12:14;2.30;;;1.40;;
78614;SDS011;67937;52.488;20.952;2023-05-03T10:14:44;2.00;;;1.50;;
78614;SDS011;67937;52.488;20.952;2023-05-03T10:17:24;2.20;;;1.50;;
78614;SDS011;67937;52.488;20.952;2023-05-03T10:20:08;1.50;;;1.40;;
78614;SDS011;67937;52.488;20.952;2023-05-03T10:25:33;1.30;;;1.30;;
78614;SDS011;67937;52.488;20.952;2023-05-03T10:28:04;1.40;;;1.20;;
78614;SDS011;67937;52.488;20.952;2023-05-03T10:30:39;2.20;;;1.60;;
78614;SDS011;67937;52.488;20.952;2023-05-03T10:35:51;2.30;;;1.50;;
78614;SDS011;67937;52.488;20.952;2023-05-03T10:38:27;3.10;;;1.50;;
78614;SDS011;67937;52.488;20.952;2023-05-03T10:40:57;2.10;;;1.40;;
78614;SDS011;67937;52.488;20.952;2023-05-03T10:45:57;3.10;;;1.20;;
78614;SDS011;67937;52.488;20.952;2023-05-03T10:48:30;2.20;;;1.90;;
78614;SDS011;67937;52.488;20.952;2023-05-03T10:51:43;6.60;;;1.50;;
78614;SDS011;67937;52.488;20.952;2023-05-03T10:54:02;2.10;;;1.40;;
78614;SDS011;67937;52.488;20.952;2023-05-03T10:56:30;2.00;;;1.40;;
78614;SDS011;67937;52.488;20.952;2023-05-03T10:58:58;2.20;;;1.40;;
78614;SDS011;67937;52.488;20.952;2023-05-03T11:01:27;2.00;;;1.10;;
78614;SDS011;67937;52.488;20.952;2023-05-03T11:04:06;1.80;;;1.40;;
78614;SDS011;67937;52.488;20.952;2023-05-03T11:06:39;2.60;;;1.40;;
78614;SDS011;67937;52.488;20.952;2023-05-03T11:09:08;1.40;;;1.10;;
78614;SDS011;67937;52.488;20.952;2023-05-03T11:11:38;1.20;;;1.10;;
78614;SDS011;67937;52.488;20.952;2023-05-03T11:14:07;1.10;;;1.10;;
78614;SDS011;67937;52.488;20.952;2023-05-03T11:16:37;2.90;;;1.00;;
78614;SDS011;67937;52.488;20.952;2023-05-03T11:19:13;2.00;;;1.50;;
78614;SDS011;67937;52.488;20.952;2023-05-03T11:21:42;3.90;;;1.20;;
78614;SDS011;67937;52.488;20.952;2023-05-03T11:24:10;1.30;;;1.10;;
78614;SDS011;67937;52.488;20.952;2023-05-03T11:26:39;4.60;;;1.40;;
78614;SDS011;67937;52.488;20.952;2023-05-03T11:29:10;2.20;;;1.20;;
78614;SDS011;67937;52.488;20.952;2023-05-03T11:31:40;1.50;;;1.20;;
78614;SDS011;67937;52.488;20.952;2023-05-03T11:34:10;4.70;;;1.40;;
78614;SDS011;67937;52.488;20.952;2023-05-03T11:36:39;1.60;;;1.40;;
78614;SDS011;67937;52.488;20.952;2023-05-03T11:39:10;3.40;;;1.60;;
78614;SDS011;67937;52.488;20.952;2023-05-03T11:41:38;1.40;;;1.40;;
78614;SDS011;67937;52.488;20.952;2023-05-03T11:44:07;3.70;;;1.00;;
78614;SDS011;67937;52.488;20.952;2023-05-03T11:46:36;2.70;;;1.50;;
78614;SDS011;67937;52.488;20.952;2023-05-03T11:49:05;1.40;;;1.30;;
78614;SDS011;67937;52.488;20.952;2023-05-03T11:51:33;1.70;;;1.60;;
78614;SDS011;67937;52.488;20.952;2023-05-03T11:54:02;1.50;;;1.30;;
78614;SDS011;67937;52.488;20.952;2023-05-03T11:56:31;1.70;;;1.50;;
78614;SDS011;67937;52.488;20.952;2023-05-03T11:59:00;1.80;;;1.30;;
78614;SDS011;67937;52.488;20.952;2023-05-03T12:01:29;1.70;;;1.30;;
78614;SDS011;67937;52.488;20.952;2023-05-03T12:03:58;2.30;;;1.20;;
78614;SDS011;67937;52.488;20.952;2023-05-03T12:06:31;1.50;;;1.40;;
78614;SDS011;67937;52.488;20.952;2023-05-03T12:09:00;2.40;;;1.50;;
78614;SDS011;67937;52.488;20.952;2023-05-03T12:11:29;1.70;;;1.30;;
78614;SDS011;67937;52.488;20.952;2023-05-03T12:14:07;1.40;;;1.30;;
78614;SDS011;67937;52.488;20.952;2023-05-03T12:16:48;2.60;;;1.30;;
78614;SDS011;67937;52.488;20.952;2023-05-03T12:19:27;1.60;;;1.20;;
78614;SDS011;67937;52.488;20.952;2023-05-03T12:21:57;2.00;;;1.40;;
78614;SDS011;67937;52.488;20.952;2023-05-03T12:24:25;2.20;;;1.30;;
78614;SDS011;67937;52.488;20.952;2023-05-03T12:26:53;1.30;;;1.10;;
78614;SDS011;67937;52.488;20.952;2023-05-03T12:29:23;1.30;;;1.00;;
78614;SDS011;67937;52.488;20.952;2023-05-03T12:31:51;1.70;;;1.50;;
78614;SDS011;67937;52.488;20.952;2023-05-03T12:34:19;2.70;;;1.20;;
78614;SDS011;67937;52.488;20.952;2023-05-03T12:36:47;2.00;;;1.10;;
78614;SDS011;67937;52.488;20.952;2023-05-03T12:39:16;1.40;;;1.20;;
78614;SDS011;67937;52.488;20.952;2023-05-03T12:41:44;3.40;;;1.70;;
78614;SDS011;67937;52.488;20.952;2023-05-03T12:44:12;2.20;;;1.50;;
78614;SDS011;67937;52.488;20.952;2023-05-03T12:46:40;1.60;;;1.20;;
78614;SDS011;67937;52.488;20.952;2023-05-03T12:49:08;2.60;;;1.40;;
78614;SDS011;67937;52.488;20.952;2023-05-03T12:51:37;3.10;;;1.50;;
78614;SDS011;67937;52.488;20.952;2023-05-03T12:54:05;2.50;;;1.70;;
78614;SDS011;67937;52.488;20.952;2023-05-03T12:56:33;5.20;;;1.50;;
78614;SDS011;67937;52.488;20.952;2023-05-03T12:59:01;8.00;;;1.80;;
78614;SDS011;67937;52.488;20.952;2023-05-03T13:01:29;1.40;;;1.10;;
78614;SDS011;67937;52.488;20.952;2023-05-03T13:03:58;1.50;;;1.40;;
78614;SDS011;67937;52.488;20.952;2023-05-03T13:06:26;1.90;;;0.90;;
78614;SDS011;67937;52.488;20.952;2023-05-03T13:08:54;2.30;;;1.40;;
78614;SDS011;67937;52.488;20.952;2023-05-03T13:11:22;1.40;;;1.30;;
78614;SDS011;67937;52.488;20.952;2023-05-03T13:13:51;2.60;;;1.50;;
78614;SDS011;67937;52.488;20.952;2023-05-03T13:16:19;2.00;;;1.20;;
78614;SDS011;67937;52.488;20.952;2023-05-03T13:18:48;1.20;;;1.10;;
78614;SDS011;67937;52.488;20.952;2023-05-03T13:21:20;2.60;;;1.40;;
78614;SDS011;67937;52.488;20.952;2023-05-03T13:23:49;1.60;;;1.10;;
78614;SDS011;67937;52.488;20.952;2023-05-03T13:26:17;9.70;;;1.60;;
78614;SDS011;67937;52.488;20.952;2023-05-03T13:28:45;1.40;;;1.10;;
78614;SDS011;67937;52.488;20.952;2023-05-03T13:31:13;2.70;;;1.30;;
78614;SDS011;67937;52.488;20.952;2023-05-03T13:33:41;2.60;;;1.20;;
78614;SDS011;67937;52.488;20.952;2023-05-03T13:36:10;4.80;;;1.40;;
78614;SDS011;67937;52.488;20.952;2023-05-03T13:38:38;1.70;;;1.40;;
78614;SDS011;67937;52.488;20.952;2023-05-03T13:41:07;2.00;;;1.20;;
78614;SDS011;67937;52.488;20.952;2023-05-03T13:43:35;1.10;;;1.00;;
78614;SDS011;67937;52.488;20.952;2023-05-03T13:46:03;1.20;;;1.00;;
78614;SDS011;67937;52.488;20.952;2023-05-03T13:48:31;20.90;;;2.70;;
78614;SDS011;67937;52.488;20.952;2023-05-03T13:51:09;4.70;;;1.50;;
78614;SDS011;67937;52.488;20.952;2023-05-03T13:53:39;5.40;;;1.50;;
78614;SDS011;67937;52.488;20.952;2023-05-03T13:56:07;1.50;;;1.20;;
78614;SDS011;67937;52.488;20.952;2023-05-03T13:58:35;1.20;;;1.10;;
78614;SDS011;67937;52.488;20.952;2023-05-03T14:01:05;1.40;;;1.10;;
78614;SDS011;67937;52.488;20.952;2023-05-03T14:03:33;1.70;;;1.20;;
78614;SDS011;67937;52.488;20.952;2023-05-03T14:06:01;1.10;;;1.10;;
78614;SDS011;67937;52.488;20.952;2023-05-03T14:08:30;8.60;;;1.30;;
78614;SDS011;67937;52.488;20.952;2023-05-03T14:10:58;2.00;;;1.20;;
78614;SDS011;67937;52.488;20.952;2023-05-03T14:13:27;1.10;;;1.00;;
78614;SDS011;67937;52.488;20.952;2023-05-03T14:15:55;2.70;;;2.10;;
78614;SDS011;67937;52.488;20.952;2023-05-03T14:18:23;1.00;;;0.90;;
78614;SDS011;67937;52.488;20.952;2023-05-03T14:20:52;1.70;;;1.60;;
78614;SDS011;67937;52.488;20.952;2023-05-03T14:23:20;2.60;;;1.20;;
78614;SDS011;67937;52.488;20.952;2023-05-03T14:25:49;1.10;;;1.10;;
78614;SDS011;67937;52.488;20.952;2023-05-03T14:28:18;1.20;;;1.20;;
78614;SDS011;67937;52.488;20.952;2023-05-03T14:30:46;1.00;;;0.90;;
78614;SDS011;67937;52.488;20.952;2023-05-03T14:33:15;0.50;;;0.50;;
78614;SDS011;67937;52.488;20.952;2023-05-03T14:35:44;1.30;;;1.20;;
78614;SDS011;67937;52.488;20.952;2023-05-03T14:38:12;1.30;;;1.20;;
78614;SDS011;67937;52.488;20.952;2023-05-03T14:40:41;4.70;;;1.00;;
78614;SDS011;67937;52.488;20.952;2023-05-03T14:43:09;2.10;;;1.10;;
78614;SDS011;67937;52.488;20.952;2023-05-03T14:45:38;1.40;;;1.00;;
78614;SDS011;67937;52.488;20.952;2023-05-03T14:48:06;2.70;;;1.30;;
78614;SDS011;67937;52.488;20.952;2023-05-03T14:50:34;1.70;;;1.20;;
78614;SDS011;67937;52.488;20.952;2023-05-03T14:53:02;1.50;;;1.40;;
78614;SDS011;67937;52.488;20.952;2023-05-03T14:55:31;1.60;;;1.50;;
78614;SDS011;67937;52.488;20.952;2023-05-03T14:58:00;3.00;;;1.20;;
78614;SDS011;67937;52.488;20.952;2023-05-03T15:00:28;10.10;;;2.00;;
78614;SDS011;67937;52.488;20.952;2023-05-03T15:02:57;1.90;;;1.10;;
78614;SDS011;67937;52.488;20.952;2023-05-03T15:05:25;1.30;;;1.20;;
78614;SDS011;67937;52.488;20.952;2023-05-03T15:07:55;1.20;;;1.10;;
78614;SDS011;67937;52.488;20.952;2023-05-03T15:10:24;1.20;;;1.10;;
78614;SDS011;67937;52.488;20.952;2023-05-03T15:12:52;11.30;;;1.70;;